Terminal Aerodrome Forecast
Issued by NWS

Home | Current Version | Previous Version | Text Only | Print | Product List | Glossary On
Versions: 1 2 3 4 5 6 7 8 9 10 11 12 13 14 15 16 17 18 19 20 21 22 23 24 25 26 27
000
FTUS45 KLKN 172300
TAFWMC
TAF
KWMC 172320Z 1800/1824 21008KT P6SM FEW100
     FM180300 VRB06KT P6SM SCT100
     FM182000 27009KT P6SM BKN100=

USA.gov is the U.S. government's official web portal to all federal, state and local government web resources and services.